sensor_id;sensor_type;location;lat;lon;timestamp;P1;durP1;ratioP1;P2;durP2;ratioP2
10452;SDS011;5274;51.992;8.518;2023-04-16T00:01:06;17.45;;;16.05;;
10452;SDS011;5274;51.992;8.518;2023-04-16T00:03:32;17.90;;;16.35;;
10452;SDS011;5274;51.992;8.518;2023-04-16T00:05:58;16.50;;;15.25;;
10452;SDS011;5274;51.992;8.518;2023-04-16T00:08:24;16.77;;;15.40;;
10452;SDS011;5274;51.992;8.518;2023-04-16T00:10:51;16.48;;;15.13;;
10452;SDS011;5274;51.992;8.518;2023-04-16T00:13:17;16.60;;;15.20;;
10452;SDS011;5274;51.992;8.518;2023-04-16T00:15:43;16.13;;;14.82;;
10452;SDS011;5274;51.992;8.518;2023-04-16T00:18:09;16.80;;;15.38;;
10452;SDS011;5274;51.992;8.518;2023-04-16T00:20:35;17.98;;;16.58;;
10452;SDS011;5274;51.992;8.518;2023-04-16T00:23:01;18.55;;;17.05;;
10452;SDS011;5274;51.992;8.518;2023-04-16T00:25:27;16.27;;;15.00;;
10452;SDS011;5274;51.992;8.518;2023-04-16T00:27:53;16.65;;;15.45;;
10452;SDS011;5274;51.992;8.518;2023-04-16T00:30:19;16.30;;;15.00;;
10452;SDS011;5274;51.992;8.518;2023-04-16T00:32:45;16.35;;;15.23;;
10452;SDS011;5274;51.992;8.518;2023-04-16T00:35:11;16.60;;;15.40;;
10452;SDS011;5274;51.992;8.518;2023-04-16T00:37:37;17.92;;;16.38;;
10452;SDS011;5274;51.992;8.518;2023-04-16T00:40:03;17.50;;;16.30;;
10452;SDS011;5274;51.992;8.518;2023-04-16T00:42:29;17.45;;;16.20;;
10452;SDS011;5274;51.992;8.518;2023-04-16T00:44:55;17.90;;;16.55;;
10452;SDS011;5274;51.992;8.518;2023-04-16T00:47:21;16.40;;;15.20;;
10452;SDS011;5274;51.992;8.518;2023-04-16T00:49:47;16.83;;;15.35;;
10452;SDS011;5274;51.992;8.518;2023-04-16T00:52:13;16.35;;;15.15;;
10452;SDS011;5274;51.992;8.518;2023-04-16T00:54:39;17.00;;;15.60;;
10452;SDS011;5274;51.992;8.518;2023-04-16T00:57:05;17.35;;;16.05;;
10452;SDS011;5274;51.992;8.518;2023-04-16T00:59:31;16.80;;;15.50;;
10452;SDS011;5274;51.992;8.518;2023-04-16T01:01:57;18.00;;;16.52;;
10452;SDS011;5274;51.992;8.518;2023-04-16T01:04:23;17.23;;;15.82;;
10452;SDS011;5274;51.992;8.518;2023-04-16T01:06:50;18.42;;;16.92;;
10452;SDS011;5274;51.992;8.518;2023-04-16T01:09:16;16.98;;;15.77;;
10452;SDS011;5274;51.992;8.518;2023-04-16T01:11:42;17.50;;;15.93;;
10452;SDS011;5274;51.992;8.518;2023-04-16T01:14:08;17.60;;;16.30;;
10452;SDS011;5274;51.992;8.518;2023-04-16T01:16:34;16.60;;;15.40;;
10452;SDS011;5274;51.992;8.518;2023-04-16T01:19:00;17.13;;;15.90;;
10452;SDS011;5274;51.992;8.518;2023-04-16T01:21:26;19.00;;;17.35;;
10452;SDS011;5274;51.992;8.518;2023-04-16T01:23:52;16.52;;;15.30;;
10452;SDS011;5274;51.992;8.518;2023-04-16T01:26:18;17.15;;;15.88;;
10452;SDS011;5274;51.992;8.518;2023-04-16T01:28:44;18.10;;;16.58;;
10452;SDS011;5274;51.992;8.518;2023-04-16T01:31:10;18.02;;;16.65;;
10452;SDS011;5274;51.992;8.518;2023-04-16T01:33:36;16.60;;;15.38;;
10452;SDS011;5274;51.992;8.518;2023-04-16T01:36:02;17.08;;;15.68;;
10452;SDS011;5274;51.992;8.518;2023-04-16T01:38:28;17.40;;;15.98;;
10452;SDS011;5274;51.992;8.518;2023-04-16T01:40:55;18.17;;;16.80;;
10452;SDS011;5274;51.992;8.518;2023-04-16T01:43:21;17.88;;;16.48;;
10452;SDS011;5274;51.992;8.518;2023-04-16T01:45:47;18.05;;;16.45;;
10452;SDS011;5274;51.992;8.518;2023-04-16T01:48:13;18.63;;;17.08;;
10452;SDS011;5274;51.992;8.518;2023-04-16T01:50:39;18.83;;;17.35;;
10452;SDS011;5274;51.992;8.518;2023-04-16T01:53:06;18.67;;;17.17;;
10452;SDS011;5274;51.992;8.518;2023-04-16T01:55:33;17.85;;;16.50;;
10452;SDS011;5274;51.992;8.518;2023-04-16T01:57:59;17.58;;;16.27;;
10452;SDS011;5274;51.992;8.518;2023-04-16T02:00:25;18.20;;;16.80;;
10452;SDS011;5274;51.992;8.518;2023-04-16T02:02:51;17.40;;;16.00;;
10452;SDS011;5274;51.992;8.518;2023-04-16T02:05:17;18.15;;;16.65;;
10452;SDS011;5274;51.992;8.518;2023-04-16T02:07:43;18.15;;;16.75;;
10452;SDS011;5274;51.992;8.518;2023-04-16T02:10:09;18.00;;;16.45;;
10452;SDS011;5274;51.992;8.518;2023-04-16T02:12:35;18.52;;;17.02;;
10452;SDS011;5274;51.992;8.518;2023-04-16T02:15:01;19.10;;;17.63;;
10452;SDS011;5274;51.992;8.518;2023-04-16T02:17:27;18.77;;;17.27;;
10452;SDS011;5274;51.992;8.518;2023-04-16T02:19:53;18.08;;;16.73;;
10452;SDS011;5274;51.992;8.518;2023-04-16T02:22:19;17.23;;;16.00;;
10452;SDS011;5274;51.992;8.518;2023-04-16T02:24:45;16.45;;;15.35;;
10452;SDS011;5274;51.992;8.518;2023-04-16T02:27:11;16.65;;;15.50;;
10452;SDS011;5274;51.992;8.518;2023-04-16T02:29:37;17.75;;;16.40;;
10452;SDS011;5274;51.992;8.518;2023-04-16T02:32:03;18.05;;;16.73;;
10452;SDS011;5274;51.992;8.518;2023-04-16T02:34:29;18.42;;;16.88;;
10452;SDS011;5274;51.992;8.518;2023-04-16T02:36:55;17.67;;;16.33;;
10452;SDS011;5274;51.992;8.518;2023-04-16T02:39:22;18.13;;;16.52;;
10452;SDS011;5274;51.992;8.518;2023-04-16T02:41:48;17.17;;;15.80;;
10452;SDS011;5274;51.992;8.518;2023-04-16T02:44:14;15.80;;;14.52;;
10452;SDS011;5274;51.992;8.518;2023-04-16T02:46:40;15.38;;;14.18;;
10452;SDS011;5274;51.992;8.518;2023-04-16T02:49:06;17.80;;;16.30;;
10452;SDS011;5274;51.992;8.518;2023-04-16T02:51:32;18.10;;;16.73;;
10452;SDS011;5274;51.992;8.518;2023-04-16T02:53:58;18.08;;;16.77;;
10452;SDS011;5274;51.992;8.518;2023-04-16T02:56:24;17.08;;;15.77;;
10452;SDS011;5274;51.992;8.518;2023-04-16T02:58:50;16.65;;;15.52;;
10452;SDS011;5274;51.992;8.518;2023-04-16T03:01:16;17.75;;;16.17;;
10452;SDS011;5274;51.992;8.518;2023-04-16T03:03:42;17.17;;;15.85;;
10452;SDS011;5274;51.992;8.518;2023-04-16T03:06:08;16.77;;;15.57;;
10452;SDS011;5274;51.992;8.518;2023-04-16T03:08:34;17.23;;;15.93;;
10452;SDS011;5274;51.992;8.518;2023-04-16T03:11:00;26.85;;;25.15;;
10452;SDS011;5274;51.992;8.518;2023-04-16T03:13:26;28.52;;;26.73;;
10452;SDS011;5274;51.992;8.518;2023-04-16T03:15:52;27.63;;;25.92;;
10452;SDS011;5274;51.992;8.518;2023-04-16T03:18:17;24.38;;;22.70;;
10452;SDS011;5274;51.992;8.518;2023-04-16T03:20:43;25.33;;;23.73;;
10452;SDS011;5274;51.992;8.518;2023-04-16T03:23:09;25.83;;;24.10;;
10452;SDS011;5274;51.992;8.518;2023-04-16T03:25:35;25.23;;;23.63;;
10452;SDS011;5274;51.992;8.518;2023-04-16T03:28:04;24.75;;;23.15;;
10452;SDS011;5274;51.992;8.518;2023-04-16T03:30:30;26.55;;;24.85;;
10452;SDS011;5274;51.992;8.518;2023-04-16T03:32:56;24.42;;;22.83;;
10452;SDS011;5274;51.992;8.518;2023-04-16T03:35:22;27.88;;;26.17;;
10452;SDS011;5274;51.992;8.518;2023-04-16T03:37:48;27.95;;;26.15;;
10452;SDS011;5274;51.992;8.518;2023-04-16T03:40:14;27.05;;;25.15;;
10452;SDS011;5274;51.992;8.518;2023-04-16T03:42:40;26.83;;;25.00;;
10452;SDS011;5274;51.992;8.518;2023-04-16T03:45:06;25.30;;;23.65;;
10452;SDS011;5274;51.992;8.518;2023-04-16T03:47:33;25.85;;;24.20;;
10452;SDS011;5274;51.992;8.518;2023-04-16T03:49:59;27.50;;;25.73;;
10452;SDS011;5274;51.992;8.518;2023-04-16T03:52:25;21.45;;;19.95;;
10452;SDS011;5274;51.992;8.518;2023-04-16T03:54:52;24.50;;;23.00;;
10452;SDS011;5274;51.992;8.518;2023-04-16T03:57:18;26.13;;;24.50;;
10452;SDS011;5274;51.992;8.518;2023-04-16T03:59:44;37.83;;;35.42;;
10452;SDS011;5274;51.992;8.518;2023-04-16T04:02:09;38.55;;;36.15;;
10452;SDS011;5274;51.992;8.518;2023-04-16T04:04:35;38.88;;;36.28;;
10452;SDS011;5274;51.992;8.518;2023-04-16T04:07:01;38.45;;;36.05;;
10452;SDS011;5274;51.992;8.518;2023-04-16T04:09:27;37.80;;;35.25;;
10452;SDS011;5274;51.992;8.518;2023-04-16T04:11:53;38.28;;;35.88;;
10452;SDS011;5274;51.992;8.518;2023-04-16T04:14:19;38.22;;;35.83;;
10452;SDS011;5274;51.992;8.518;2023-04-16T04:16:45;38.25;;;35.92;;
10452;SDS011;5274;51.992;8.518;2023-04-16T04:19:11;38.00;;;35.70;;
10452;SDS011;5274;51.992;8.518;2023-04-16T04:21:37;38.83;;;36.33;;
10452;SDS011;5274;51.992;8.518;2023-04-16T04:24:03;38.28;;;35.92;;
10452;SDS011;5274;51.992;8.518;2023-04-16T04:26:29;37.60;;;35.30;;
10452;SDS011;5274;51.992;8.518;2023-04-16T04:28:55;36.85;;;34.55;;
10452;SDS011;5274;51.992;8.518;2023-04-16T04:31:21;37.25;;;34.85;;
10452;SDS011;5274;51.992;8.518;2023-04-16T04:33:47;37.88;;;35.38;;
10452;SDS011;5274;51.992;8.518;2023-04-16T04:36:13;38.08;;;35.67;;
10452;SDS011;5274;51.992;8.518;2023-04-16T04:38:38;36.90;;;34.60;;
10452;SDS011;5274;51.992;8.518;2023-04-16T04:41:04;38.78;;;36.33;;
10452;SDS011;5274;51.992;8.518;2023-04-16T04:43:30;38.92;;;36.42;;
10452;SDS011;5274;51.992;8.518;2023-04-16T04:45:56;39.20;;;36.70;;
10452;SDS011;5274;51.992;8.518;2023-04-16T04:48:22;39.25;;;36.85;;
10452;SDS011;5274;51.992;8.518;2023-04-16T04:50:50;39.15;;;36.75;;
10452;SDS011;5274;51.992;8.518;2023-04-16T04:53:17;39.30;;;36.60;;
10452;SDS011;5274;51.992;8.518;2023-04-16T04:55:43;38.45;;;36.03;;
10452;SDS011;5274;51.992;8.518;2023-04-16T04:58:09;37.97;;;35.58;;
10452;SDS011;5274;51.992;8.518;2023-04-16T05:00:35;37.22;;;34.92;;
10452;SDS011;5274;51.992;8.518;2023-04-16T05:03:01;37.40;;;35.15;;
10452;SDS011;5274;51.992;8.518;2023-04-16T05:05:27;37.97;;;35.60;;
10452;SDS011;5274;51.992;8.518;2023-04-16T05:07:53;38.58;;;36.13;;
10452;SDS011;5274;51.992;8.518;2023-04-16T05:10:19;38.90;;;36.30;;
10452;SDS011;5274;51.992;8.518;2023-04-16T05:12:46;39.22;;;36.72;;
10452;SDS011;5274;51.992;8.518;2023-04-16T05:15:12;39.50;;;36.72;;
10452;SDS011;5274;51.992;8.518;2023-04-16T05:17:38;37.95;;;35.55;;
10452;SDS011;5274;51.992;8.518;2023-04-16T05:20:04;37.53;;;35.15;;
10452;SDS011;5274;51.992;8.518;2023-04-16T05:22:30;37.55;;;35.15;;
10452;SDS011;5274;51.992;8.518;2023-04-16T05:24:56;37.17;;;34.88;;
10452;SDS011;5274;51.992;8.518;2023-04-16T05:27:22;36.67;;;34.42;;
10452;SDS011;5274;51.992;8.518;2023-04-16T05:29:48;38.88;;;36.28;;
10452;SDS011;5274;51.992;8.518;2023-04-16T05:32:14;38.92;;;36.33;;
10452;SDS011;5274;51.992;8.518;2023-04-16T05:34:40;40.13;;;37.53;;
10452;SDS011;5274;51.992;8.518;2023-04-16T05:37:06;38.33;;;35.83;;
10452;SDS011;5274;51.992;8.518;2023-04-16T05:39:32;38.20;;;35.70;;
10452;SDS011;5274;51.992;8.518;2023-04-16T05:41:58;38.33;;;35.78;;
10452;SDS011;5274;51.992;8.518;2023-04-16T05:44:24;37.95;;;35.50;;
10452;SDS011;5274;51.992;8.518;2023-04-16T05:46:50;38.25;;;35.75;;
10452;SDS011;5274;51.992;8.518;2023-04-16T05:49:16;37.35;;;35.05;;
10452;SDS011;5274;51.992;8.518;2023-04-16T05:51:42;38.40;;;35.90;;
10452;SDS011;5274;51.992;8.518;2023-04-16T05:54:08;37.05;;;34.55;;
10452;SDS011;5274;51.992;8.518;2023-04-16T05:56:34;36.35;;;33.95;;
10452;SDS011;5274;51.992;8.518;2023-04-16T05:59:00;35.97;;;33.65;;
10452;SDS011;5274;51.992;8.518;2023-04-16T06:01:26;38.60;;;36.10;;
10452;SDS011;5274;51.992;8.518;2023-04-16T06:03:52;36.63;;;34.22;;
10452;SDS011;5274;51.992;8.518;2023-04-16T06:06:18;37.95;;;35.58;;
10452;SDS011;5274;51.992;8.518;2023-04-16T06:08:44;38.08;;;35.70;;
10452;SDS011;5274;51.992;8.518;2023-04-16T06:11:10;36.70;;;34.40;;
10452;SDS011;5274;51.992;8.518;2023-04-16T06:13:36;39.47;;;37.03;;
10452;SDS011;5274;51.992;8.518;2023-04-16T06:16:02;38.97;;;36.58;;
10452;SDS011;5274;51.992;8.518;2023-04-16T06:18:28;36.97;;;34.58;;
10452;SDS011;5274;51.992;8.518;2023-04-16T06:20:54;36.15;;;33.85;;
10452;SDS011;5274;51.992;8.518;2023-04-16T06:23:20;38.78;;;36.17;;
10452;SDS011;5274;51.992;8.518;2023-04-16T06:25:46;33.13;;;30.90;;
10452;SDS011;5274;51.992;8.518;2023-04-16T06:28:12;35.88;;;33.65;;
10452;SDS011;5274;51.992;8.518;2023-04-16T06:30:38;35.22;;;33.03;;
10452;SDS011;5274;51.992;8.518;2023-04-16T06:33:03;36.53;;;34.22;;
10452;SDS011;5274;51.992;8.518;2023-04-16T06:35:29;38.08;;;35.67;;
10452;SDS011;5274;51.992;8.518;2023-04-16T06:37:55;38.95;;;36.38;;
10452;SDS011;5274;51.992;8.518;2023-04-16T06:40:21;38.47;;;35.90;;
10452;SDS011;5274;51.992;8.518;2023-04-16T06:42:47;38.70;;;36.20;;
10452;SDS011;5274;51.992;8.518;2023-04-16T06:45:13;37.15;;;34.63;;
10452;SDS011;5274;51.992;8.518;2023-04-16T06:47:39;38.38;;;35.95;;
10452;SDS011;5274;51.992;8.518;2023-04-16T06:50:05;37.75;;;35.25;;
10452;SDS011;5274;51.992;8.518;2023-04-16T06:52:31;37.78;;;35.28;;
10452;SDS011;5274;51.992;8.518;2023-04-16T06:54:57;38.05;;;35.38;;
10452;SDS011;5274;51.992;8.518;2023-04-16T06:57:23;38.72;;;36.20;;
10452;SDS011;5274;51.992;8.518;2023-04-16T06:59:49;39.38;;;36.83;;
10452;SDS011;5274;51.992;8.518;2023-04-16T07:02:15;38.17;;;35.72;;
10452;SDS011;5274;51.992;8.518;2023-04-16T07:04:41;37.17;;;34.70;;
10452;SDS011;5274;51.992;8.518;2023-04-16T07:07:07;38.20;;;35.70;;
10452;SDS011;5274;51.992;8.518;2023-04-16T07:09:33;36.10;;;33.70;;
10452;SDS011;5274;51.992;8.518;2023-04-16T07:11:59;35.15;;;32.85;;
10452;SDS011;5274;51.992;8.518;2023-04-16T07:14:25;36.00;;;33.63;;
10452;SDS011;5274;51.992;8.518;2023-04-16T07:16:51;35.78;;;32.92;;
10452;SDS011;5274;51.992;8.518;2023-04-16T07:19:17;37.30;;;34.15;;
10452;SDS011;5274;51.992;8.518;2023-04-16T07:21:43;37.15;;;34.58;;
10452;SDS011;5274;51.992;8.518;2023-04-16T07:24:10;35.92;;;33.08;;
10452;SDS011;5274;51.992;8.518;2023-04-16T07:26:36;38.53;;;35.42;;
10452;SDS011;5274;51.992;8.518;2023-04-16T07:29:02;38.53;;;35.50;;
10452;SDS011;5274;51.992;8.518;2023-04-16T07:31:28;35.50;;;32.67;;
10452;SDS011;5274;51.992;8.518;2023-04-16T07:33:53;39.45;;;36.42;;
10452;SDS011;5274;51.992;8.518;2023-04-16T07:36:20;33.90;;;31.35;;
10452;SDS011;5274;51.992;8.518;2023-04-16T07:38:46;36.13;;;33.22;;
10452;SDS011;5274;51.992;8.518;2023-04-16T07:41:11;37.35;;;34.08;;
10452;SDS011;5274;51.992;8.518;2023-04-16T07:43:37;39.40;;;35.42;;
10452;SDS011;5274;51.992;8.518;2023-04-16T07:46:03;37.78;;;35.10;;
10452;SDS011;5274;51.992;8.518;2023-04-16T07:48:30;38.65;;;35.00;;
10452;SDS011;5274;51.992;8.518;2023-04-16T07:50:56;39.15;;;36.00;;
10452;SDS011;5274;51.992;8.518;2023-04-16T07:53:22;38.42;;;35.20;;
10452;SDS011;5274;51.992;8.518;2023-04-16T07:55:48;39.20;;;36.20;;
10452;SDS011;5274;51.992;8.518;2023-04-16T07:58:14;38.30;;;35.35;;
10452;SDS011;5274;51.992;8.518;2023-04-16T08:00:40;36.97;;;34.38;;
10452;SDS011;5274;51.992;8.518;2023-04-16T08:03:06;38.20;;;35.05;;
10452;SDS011;5274;51.992;8.518;2023-04-16T08:05:32;38.70;;;35.90;;
10452;SDS011;5274;51.992;8.518;2023-04-16T08:07:58;38.17;;;35.20;;
10452;SDS011;5274;51.992;8.518;2023-04-16T08:10:24;38.53;;;35.40;;
10452;SDS011;5274;51.992;8.518;2023-04-16T08:12:50;37.80;;;35.10;;
10452;SDS011;5274;51.992;8.518;2023-04-16T08:15:16;36.55;;;34.15;;
10452;SDS011;5274;51.992;8.518;2023-04-16T08:17:42;34.67;;;32.10;;
10452;SDS011;5274;51.992;8.518;2023-04-16T08:20:08;38.17;;;35.38;;
10452;SDS011;5274;51.992;8.518;2023-04-16T08:22:34;37.08;;;34.17;;
10452;SDS011;5274;51.992;8.518;2023-04-16T08:25:02;37.28;;;34.67;;
10452;SDS011;5274;51.992;8.518;2023-04-16T08:27:28;35.92;;;33.17;;
10452;SDS011;5274;51.992;8.518;2023-04-16T08:29:54;37.05;;;34.42;;
10452;SDS011;5274;51.992;8.518;2023-04-16T08:32:20;38.20;;;35.47;;
10452;SDS011;5274;51.992;8.518;2023-04-16T08:34:46;37.15;;;34.47;;
10452;SDS011;5274;51.992;8.518;2023-04-16T08:37:12;36.03;;;33.42;;
10452;SDS011;5274;51.992;8.518;2023-04-16T08:39:37;34.28;;;31.70;;
10452;SDS011;5274;51.992;8.518;2023-04-16T08:42:04;36.35;;;33.63;;
10452;SDS011;5274;51.992;8.518;2023-04-16T08:44:31;34.90;;;32.30;;
10452;SDS011;5274;51.992;8.518;2023-04-16T08:46:59;37.20;;;34.35;;
10452;SDS011;5274;51.992;8.518;2023-04-16T08:49:25;38.33;;;35.13;;
10452;SDS011;5274;51.992;8.518;2023-04-16T08:51:52;35.10;;;32.60;;
10452;SDS011;5274;51.992;8.518;2023-04-16T08:56:57;38.55;;;35.42;;
10452;SDS011;5274;51.992;8.518;2023-04-16T08:59:24;38.88;;;36.08;;
10452;SDS011;5274;51.992;8.518;2023-04-16T09:01:50;36.67;;;34.03;;
10452;SDS011;5274;51.992;8.518;2023-04-16T09:04:17;34.60;;;32.20;;
10452;SDS011;5274;51.992;8.518;2023-04-16T09:06:43;35.50;;;33.05;;
10452;SDS011;5274;51.992;8.518;2023-04-16T09:09:10;34.90;;;32.30;;
10452;SDS011;5274;51.992;8.518;2023-04-16T09:11:38;37.25;;;34.17;;
10452;SDS011;5274;51.992;8.518;2023-04-16T09:14:04;38.38;;;35.53;;
10452;SDS011;5274;51.992;8.518;2023-04-16T09:16:35;38.00;;;35.30;;
10452;SDS011;5274;51.992;8.518;2023-04-16T09:19:01;40.03;;;35.92;;
10452;SDS011;5274;51.992;8.518;2023-04-16T09:21:27;39.17;;;36.47;;
10452;SDS011;5274;51.992;8.518;2023-04-16T09:23:53;39.05;;;36.00;;
10452;SDS011;5274;51.992;8.518;2023-04-16T09:26:20;38.97;;;35.63;;
10452;SDS011;5274;51.992;8.518;2023-04-16T09:28:47;39.22;;;36.03;;
10452;SDS011;5274;51.992;8.518;2023-04-16T09:31:15;38.28;;;35.10;;
10452;SDS011;5274;51.992;8.518;2023-04-16T09:33:42;38.33;;;34.95;;
10452;SDS011;5274;51.992;8.518;2023-04-16T09:36:08;38.78;;;35.92;;
10452;SDS011;5274;51.992;8.518;2023-04-16T09:38:44;38.03;;;35.05;;
10452;SDS011;5274;51.992;8.518;2023-04-16T09:41:11;38.28;;;35.65;;
10452;SDS011;5274;51.992;8.518;2023-04-16T09:43:37;38.03;;;35.30;;
10452;SDS011;5274;51.992;8.518;2023-04-16T09:46:03;37.97;;;34.92;;
10452;SDS011;5274;51.992;8.518;2023-04-16T09:48:30;37.72;;;35.13;;
10452;SDS011;5274;51.992;8.518;2023-04-16T09:50:56;36.88;;;33.92;;
10452;SDS011;5274;51.992;8.518;2023-04-16T09:53:23;37.35;;;34.75;;
10452;SDS011;5274;51.992;8.518;2023-04-16T09:55:50;36.92;;;34.20;;
10452;SDS011;5274;51.992;8.518;2023-04-16T09:58:19;36.50;;;33.58;;
10452;SDS011;5274;51.992;8.518;2023-04-16T10:00:45;36.03;;;33.63;;
10452;SDS011;5274;51.992;8.518;2023-04-16T10:03:11;36.30;;;33.47;;
10452;SDS011;5274;51.992;8.518;2023-04-16T10:05:37;38.05;;;34.00;;
10452;SDS011;5274;51.992;8.518;2023-04-16T10:08:09;38.45;;;35.03;;
10452;SDS011;5274;51.992;8.518;2023-04-16T10:10:36;35.30;;;32.03;;
10452;SDS011;5274;51.992;8.518;2023-04-16T10:13:02;34.92;;;31.70;;
10452;SDS011;5274;51.992;8.518;2023-04-16T10:15:28;36.65;;;33.40;;
10452;SDS011;5274;51.992;8.518;2023-04-16T10:17:54;35.22;;;32.53;;
10452;SDS011;5274;51.992;8.518;2023-04-16T10:20:20;36.83;;;33.92;;
10452;SDS011;5274;51.992;8.518;2023-04-16T10:22:47;36.00;;;33.17;;
10452;SDS011;5274;51.992;8.518;2023-04-16T10:25:13;36.03;;;33.22;;
10452;SDS011;5274;51.992;8.518;2023-04-16T10:27:40;33.95;;;31.38;;
10452;SDS011;5274;51.992;8.518;2023-04-16T10:30:07;38.90;;;35.75;;
10452;SDS011;5274;51.992;8.518;2023-04-16T10:32:34;37.92;;;35.08;;
10452;SDS011;5274;51.992;8.518;2023-04-16T10:35:01;37.13;;;34.40;;
10452;SDS011;5274;51.992;8.518;2023-04-16T10:37:28;36.97;;;34.38;;
10452;SDS011;5274;51.992;8.518;2023-04-16T10:39:55;36.63;;;34.03;;
10452;SDS011;5274;51.992;8.518;2023-04-16T10:42:21;37.53;;;34.58;;
10452;SDS011;5274;51.992;8.518;2023-04-16T10:44:47;37.85;;;35.10;;
10452;SDS011;5274;51.992;8.518;2023-04-16T10:47:13;36.42;;;33.90;;
10452;SDS011;5274;51.992;8.518;2023-04-16T10:49:39;36.67;;;34.25;;
10452;SDS011;5274;51.992;8.518;2023-04-16T10:52:11;36.45;;;33.95;;
10452;SDS011;5274;51.992;8.518;2023-04-16T10:54:38;37.03;;;34.42;;
10452;SDS011;5274;51.992;8.518;2023-04-16T10:57:06;37.38;;;34.78;;
10452;SDS011;5274;51.992;8.518;2023-04-16T10:59:34;32.92;;;30.63;;
10452;SDS011;5274;51.992;8.518;2023-04-16T11:02:03;35.67;;;33.38;;
10452;SDS011;5274;51.992;8.518;2023-04-16T11:04:35;35.13;;;32.83;;
10452;SDS011;5274;51.992;8.518;2023-04-16T11:12:33;36.90;;;34.28;;
10452;SDS011;5274;51.992;8.518;2023-04-16T11:17:28;29.30;;;26.92;;
10452;SDS011;5274;51.992;8.518;2023-04-16T11:19:54;31.35;;;29.20;;
10452;SDS011;5274;51.992;8.518;2023-04-16T11:22:20;27.73;;;25.67;;
10452;SDS011;5274;51.992;8.518;2023-04-16T11:24:46;27.55;;;25.38;;
10452;SDS011;5274;51.992;8.518;2023-04-16T11:27:13;26.50;;;24.75;;
10452;SDS011;5274;51.992;8.518;2023-04-16T11:29:40;34.33;;;32.10;;
10452;SDS011;5274;51.992;8.518;2023-04-16T11:32:06;36.28;;;33.67;;
10452;SDS011;5274;51.992;8.518;2023-04-16T11:34:32;35.42;;;33.22;;
10452;SDS011;5274;51.992;8.518;2023-04-16T11:36:58;35.15;;;32.65;;
10452;SDS011;5274;51.992;8.518;2023-04-16T11:39:24;34.78;;;32.58;;
10452;SDS011;5274;51.992;8.518;2023-04-16T11:41:50;33.97;;;31.85;;
10452;SDS011;5274;51.992;8.518;2023-04-16T11:44:17;35.13;;;32.72;;
10452;SDS011;5274;51.992;8.518;2023-04-16T11:46:43;36.53;;;34.13;;
10452;SDS011;5274;51.992;8.518;2023-04-16T11:49:09;35.97;;;33.67;;
10452;SDS011;5274;51.992;8.518;2023-04-16T11:51:45;37.40;;;35.00;;
10452;SDS011;5274;51.992;8.518;2023-04-16T11:54:18;36.75;;;34.35;;
10452;SDS011;5274;51.992;8.518;2023-04-16T11:56:45;37.13;;;34.22;;
10452;SDS011;5274;51.992;8.518;2023-04-16T11:59:15;35.97;;;33.47;;
10452;SDS011;5274;51.992;8.518;2023-04-16T12:01:44;36.38;;;34.03;;
10452;SDS011;5274;51.992;8.518;2023-04-16T12:04:12;36.40;;;34.03;;
10452;SDS011;5274;51.992;8.518;2023-04-16T12:06:38;34.88;;;32.60;;
10452;SDS011;5274;51.992;8.518;2023-04-16T12:11:50;35.65;;;33.33;;
10452;SDS011;5274;51.992;8.518;2023-04-16T12:14:16;37.42;;;34.95;;
10452;SDS011;5274;51.992;8.518;2023-04-16T12:16:42;37.10;;;34.60;;
10452;SDS011;5274;51.992;8.518;2023-04-16T12:19:09;37.70;;;35.35;;
10452;SDS011;5274;51.992;8.518;2023-04-16T12:21:42;37.65;;;35.30;;
10452;SDS011;5274;51.992;8.518;2023-04-16T12:24:09;36.15;;;33.55;;
10452;SDS011;5274;51.992;8.518;2023-04-16T12:26:44;35.60;;;33.30;;
10452;SDS011;5274;51.992;8.518;2023-04-16T12:29:23;34.15;;;31.95;;
10452;SDS011;5274;51.992;8.518;2023-04-16T12:31:50;34.55;;;32.40;;
10452;SDS011;5274;51.992;8.518;2023-04-16T12:34:17;32.72;;;30.33;;
10452;SDS011;5274;51.992;8.518;2023-04-16T12:36:44;35.47;;;33.10;;
10452;SDS011;5274;51.992;8.518;2023-04-16T12:39:10;37.95;;;35.47;;
10452;SDS011;5274;51.992;8.518;2023-04-16T12:41:37;38.65;;;35.92;;
10452;SDS011;5274;51.992;8.518;2023-04-16T12:44:07;39.33;;;36.75;;
10452;SDS011;5274;51.992;8.518;2023-04-16T12:46:35;38.17;;;35.55;;
10452;SDS011;5274;51.992;8.518;2023-04-16T12:49:01;37.58;;;35.17;;
10452;SDS011;5274;51.992;8.518;2023-04-16T12:51:27;36.88;;;34.60;;
10452;SDS011;5274;51.992;8.518;2023-04-16T12:53:54;36.80;;;34.55;;
10452;SDS011;5274;51.992;8.518;2023-04-16T12:56:19;35.40;;;33.13;;
10452;SDS011;5274;51.992;8.518;2023-04-16T12:58:46;36.70;;;34.33;;
10452;SDS011;5274;51.992;8.518;2023-04-16T13:01:15;36.17;;;33.97;;
10452;SDS011;5274;51.992;8.518;2023-04-16T13:03:41;36.42;;;33.75;;
10452;SDS011;5274;51.992;8.518;2023-04-16T13:06:07;33.47;;;31.35;;
10452;SDS011;5274;51.992;8.518;2023-04-16T13:08:33;36.92;;;34.47;;
10452;SDS011;5274;51.992;8.518;2023-04-16T13:10:59;37.50;;;35.03;;
10452;SDS011;5274;51.992;8.518;2023-04-16T13:13:25;36.65;;;34.28;;
10452;SDS011;5274;51.992;8.518;2023-04-16T13:15:51;37.00;;;34.55;;
10452;SDS011;5274;51.992;8.518;2023-04-16T13:18:17;36.95;;;34.55;;
10452;SDS011;5274;51.992;8.518;2023-04-16T13:20:43;36.92;;;34.63;;
10452;SDS011;5274;51.992;8.518;2023-04-16T13:23:08;36.92;;;34.70;;
10452;SDS011;5274;51.992;8.518;2023-04-16T13:25:35;37.15;;;34.85;;
10452;SDS011;5274;51.992;8.518;2023-04-16T13:28:01;37.08;;;34.75;;
10452;SDS011;5274;51.992;8.518;2023-04-16T13:30:27;37.72;;;35.22;;
10452;SDS011;5274;51.992;8.518;2023-04-16T13:32:53;36.15;;;33.85;;
10452;SDS011;5274;51.992;8.518;2023-04-16T13:35:19;36.33;;;33.63;;
10452;SDS011;5274;51.992;8.518;2023-04-16T13:37:45;36.78;;;34.53;;
10452;SDS011;5274;51.992;8.518;2023-04-16T13:40:11;36.75;;;34.35;;
10452;SDS011;5274;51.992;8.518;2023-04-16T13:42:37;36.83;;;34.50;;
10452;SDS011;5274;51.992;8.518;2023-04-16T13:45:04;36.85;;;34.55;;
10452;SDS011;5274;51.992;8.518;2023-04-16T13:47:30;36.22;;;33.92;;
10452;SDS011;5274;51.992;8.518;2023-04-16T13:49:55;36.65;;;34.22;;
10452;SDS011;5274;51.992;8.518;2023-04-16T13:52:21;39.13;;;36.63;;
10452;SDS011;5274;51.992;8.518;2023-04-16T13:54:47;30.98;;;28.88;;
10452;SDS011;5274;51.992;8.518;2023-04-16T13:57:14;33.22;;;31.05;;
10452;SDS011;5274;51.992;8.518;2023-04-16T13:59:40;34.15;;;32.08;;
10452;SDS011;5274;51.992;8.518;2023-04-16T14:02:06;36.85;;;34.47;;
10452;SDS011;5274;51.992;8.518;2023-04-16T14:04:32;33.58;;;31.58;;
10452;SDS011;5274;51.992;8.518;2023-04-16T14:06:58;36.22;;;34.00;;
10452;SDS011;5274;51.992;8.518;2023-04-16T14:09:24;33.78;;;31.70;;
10452;SDS011;5274;51.992;8.518;2023-04-16T14:11:50;36.03;;;33.78;;
10452;SDS011;5274;51.992;8.518;2023-04-16T14:14:16;35.78;;;33.38;;
10452;SDS011;5274;51.992;8.518;2023-04-16T14:16:42;32.97;;;31.05;;
10452;SDS011;5274;51.992;8.518;2023-04-16T14:19:08;32.28;;;30.35;;
10452;SDS011;5274;51.992;8.518;2023-04-16T14:21:34;31.70;;;29.83;;
10452;SDS011;5274;51.992;8.518;2023-04-16T14:24:00;30.90;;;29.00;;
10452;SDS011;5274;51.992;8.518;2023-04-16T14:26:26;32.97;;;30.98;;
10452;SDS011;5274;51.992;8.518;2023-04-16T14:28:52;36.17;;;33.75;;
10452;SDS011;5274;51.992;8.518;2023-04-16T14:31:18;36.38;;;33.97;;
10452;SDS011;5274;51.992;8.518;2023-04-16T14:33:44;34.70;;;32.45;;
10452;SDS011;5274;51.992;8.518;2023-04-16T14:36:11;35.42;;;33.08;;
10452;SDS011;5274;51.992;8.518;2023-04-16T14:38:37;34.92;;;32.72;;
10452;SDS011;5274;51.992;8.518;2023-04-16T14:41:03;32.70;;;30.70;;